Flight Track Log - Related Links

Times and Time Zones

All times are in EDT time to prevent confusion due to time zone crossing. See the N311JE flight status page for this flight to view local times or setup timezone preferences in your user account.

Time Position Orientation Groundspeed Altitude Reporting Facility
EDT Latitude Longitude Course Direction KTS MPH feet Rate Location/Type
Thu 03:46:48 PM 40.1569 -88.3444 336° Northwest 129 148 3,500  Level Chicago Center
Thu 03:47:50 PM 40.1906 -88.3572 344° North 129 148 4,200 629 Climbing Chicago Center
Thu 03:48:52 PM 40.2194 -88.3811 328° Northwest 129 148 4,800 387 Climbing Chicago Center
Thu 03:49:54 PM 40.2519 -88.3969 340° North 125 144 5,000 97 Climbing Chicago Center
Thu 03:50:00 PM 40.2693 -88.4062 337° Northwest  Level FlightAware Approximate
Thu 03:50:56 PM 40.2914 -88.4217 334° Northwest 147 169 5,000  Level Chicago Center
Thu 03:51:00 PM 40.3089 -88.4288 336° Northwest  Level FlightAware Approximate
Thu 03:51:58 PM 40.3303 -88.4442 336° Northwest 152 175 5,000  Level Chicago Center
Thu 03:52:00 PM 40.3485 -88.4514 336° Northwest  Level FlightAware Approximate
Thu 03:53:00 PM 40.3753 -88.4683 338° Northwest 152 175 5,000  Level Chicago Center
Thu 03:54:02 PM 40.4150 -88.4928 335° Northwest 155 178 5,000  Level Chicago Center
Thu 03:55:04 PM 40.4606 -88.4897 North 156 180 5,000 48 Level Chicago Center
Thu 03:56:06 PM 40.5044 -88.5044 346° North 163 188 5,100 48 Climbing Chicago Center
Thu 03:57:08 PM 40.5478 -88.5111 353° North 161 185 5,100  Level Chicago Center
Thu 03:58:10 PM 40.5942 -88.5108 360° North 161 185 5,100  Level Chicago Center
Thu 03:59:11 PM 40.6475 -88.5269 347° North 161 185 5,100  Level Chicago Center
Thu 04:00:13 PM 40.6925 -88.5314 356° North 162 186 5,100  Level Chicago Center
Thu 04:01:15 PM 40.7381 -88.5378 354° North 162 186 5,100  Level Chicago Center
Thu 04:02:17 PM 40.7833 -88.5494 349° North 162 186 5,100  Level Chicago Center
Thu 04:03:19 PM 40.8292 -88.5539 356° North 162 186 5,100  Level Chicago Center
Thu 04:04:21 PM 40.8736 -88.5619 352° North 162 186 5,100  Level Chicago Center
Thu 04:05:23 PM 40.9186 -88.5703 352° North 162 186 5,100  Level Chicago Center
Thu 04:06:25 PM 40.9725 -88.5769 355° North 162 186 5,100  Level Chicago Center
Thu 04:07:27 PM 41.0167 -88.5861 351° North 162 186 5,100  Level Chicago Center
Thu 04:08:29 PM 41.0614 -88.5886 358° North 154 177 5,100  Level Chicago Center
Thu 04:09:31 PM 41.1053 -88.5997 349° North 155 178 5,100  Level Chicago Center
Thu 04:10:32 PM 41.1533 -88.6044 356° North 157 181 5,100  Level Chicago Center
Thu 04:11:34 PM 41.1981 -88.6156 349° North 160 184 5,100  Level Chicago Center
Thu 04:12:36 PM 41.2433 -88.6219 354° North 160 184 5,100 48 Level Chicago Center
Thu 04:13:38 PM 41.2919 -88.6283 354° North 161 185 5,200 48 Climbing Chicago Center
Thu 04:14:40 PM 41.3372 -88.6386 350° North 163 188 5,200  Level Chicago Center
Thu 04:15:42 PM 41.3875 -88.6439 355° North 164 189 5,200  Level Chicago Center
Thu 04:16:44 PM 41.4333 -88.6428 North 165 190 5,200  Level Chicago Center
Thu 04:17:46 PM 41.4781 -88.6300 12° North 166 191 5,200  Level Chicago Center
Thu 04:18:47 PM 41.5289 -88.6289 North 166 191 5,200  Level Chicago Center
Thu 04:19:49 PM 41.5747 -88.6172 11° North 167 192 5,200  Level Chicago Center
Thu 04:20:51 PM 41.6228 -88.6011 14° North 167 192 5,200  Level Chicago Center
Thu 04:21:53 PM 41.6458 -88.5492 59° Northeast 161 185 5,200 -484 Level Chicago Center
Thu 04:22:55 PM 41.6631 -88.4869 70° East 176 203 4,200 -919 Descending Chicago Center
Thu 04:23:57 PM 41.6808 -88.4267 68° East 167 192 3,300 -629 Descending Chicago Center
Thu 04:24:59 PM 41.6969 -88.3719 68° East 161 185 2,900 -387 Descending Chicago Center
Thu 04:26:01 PM 41.7222 -88.3206 57° Northeast 156 180 2,500 -194 Descending Chicago Center
Thu 04:27:03 PM 41.7525 -88.2994 27° Northeast 130 150 2,500  Level Chicago Center
Thu 04:28:05 PM 41.7825 -88.2892 14° North 114 131 2,500  Level Chicago Center
Thu 04:29:07 PM 41.8128 -88.2797 13° North 109 125 2,500 -242 Level Chicago Center
Thu 04:30:09 PM 41.8381 -88.2708 15° North 99 114 2,000 -435 Descending Chicago Center
Thu 04:31:11 PM 41.8603 -88.2625 16° North 96 110 1,600 -387 Descending Chicago Center
Thu 04:36:00 PM 41.9000 -88.2333 37° Northeast  Level FlightAware Approximate

Login

Don't have an account? Register now (free) for customized features, flight alerts, and more!